Time;durP1;ratioP1;P1;durP2;ratioP2;P2;SDS_P1;SDS_P2;PMS_P1;PMS_P2;Temp;Humidity;BMP_temperature;BMP_pressure;BME280_temperature;BME280_humidity;BME280_pressure;Samples;Min_cycle;Max_cycle;Signal;HPM_P1;HPM_P2
2022/06/10 00:00:30;;;;;;;;;;;;;;;21.44;59.81;101496.25;7288545;19;153181;-54
2022/06/10 00:02:57;;;;;;;;;;;;;;;21.44;60.00;101498.25;7278647;19;153300;-54
2022/06/10 00:05:25;;;;;;;;;;;;;;;21.46;59.89;101488.38;7280392;19;153627;-53
2022/06/10 00:07:52;;;;;;;;;;;;;;;21.49;59.88;101489.72;7280250;19;153778;-54
2022/06/10 00:10:21;;;;;;;;;;;;;;;21.48;59.80;101488.91;7279671;19;152509;-53
2022/06/10 00:12:48;;;;;;;;;;;;;;;21.53;60.20;101500.06;7277235;19;153535;-53
2022/06/10 00:15:15;;;;;;;;;;;;;;;21.53;60.25;101496.44;7279055;19;153621;-54
2022/06/10 00:17:42;;;;;;;;;;;;;;;21.49;60.45;101504.63;7276503;19;152098;-53
2022/06/10 00:20:18;;;;;;;;;;;;;;;21.49;60.74;101501.81;7273206;19;152748;-53
2022/06/10 00:22:45;;;;;;;;;;;;;;;21.51;60.10;101495.91;7285233;19;153818;-54
2022/06/10 00:25:12;;;;;;;;;;;;;;;21.55;60.04;101506.22;7279963;19;152746;-54
2022/06/10 00:27:39;;;;;;;;;;;;;;;21.53;60.41;101502.88;7277484;19;154113;-54
2022/06/10 00:30:12;;;;;;;;;;;;;;;21.55;60.05;101499.78;7279047;19;152480;-53
2022/06/10 00:32:38;;;;;;;;;;;;;;;21.63;60.62;101502.75;7278500;19;153732;-55
2022/06/10 00:35:06;;;;;;;;;;;;;;;21.61;60.47;101510.66;7278567;19;153610;-53
2022/06/10 00:37:32;;;;;;;;;;;;;;;21.59;60.19;101500.84;7277133;19;152450;-54
2022/06/10 00:40:16;;;;;;;;;;;;;;;21.61;60.51;101507.84;7280200;19;152822;-54
2022/06/10 00:42:47;;;;;;;;;;;;;;;21.58;60.19;101508.44;7277683;19;153478;-53
2022/06/10 00:45:33;;;;;;;;;;;;;;;21.52;60.37;101509.66;7294208;19;151849;-52
2022/06/10 00:48:00;;;;;;;;;;;;;;;21.55;60.72;101495.00;7285354;19;153635;-54
2022/06/10 00:50:28;;;;;;;;;;;;;;;21.63;60.14;101499.94;7285354;19;152069;-54
2022/06/10 00:52:58;;;;;;;;;;;;;;;21.61;60.12;101507.00;7285471;19;152635;-53
2022/06/10 00:55:29;;;;;;;;;;;;;;;21.55;60.42;101496.97;7284103;19;153665;-54
2022/06/10 00:58:07;;;;;;;;;;;;;;;21.53;60.70;101504.88;7283601;19;151714;-53
2022/06/10 01:00:37;;;;;;;;;;;;;;;21.50;60.84;101511.09;7286050;19;154119;-54
2022/06/10 01:03:05;;;;;;;;;;;;;;;21.63;60.64;101508.38;7281727;19;154488;-54
2022/06/10 01:05:32;;;;;;;;;;;;;;;21.59;60.83;101504.50;7282632;19;152542;-54
2022/06/10 01:08:01;;;;;;;;;;;;;;;21.55;60.68;101509.06;7291176;19;152727;-54
2022/06/10 01:10:33;;;;;;;;;;;;;;;21.59;60.38;101510.13;7284908;19;152038;-53
2022/06/10 01:13:05;;;;;;;;;;;;;;;21.62;60.66;101508.69;7284956;19;152620;-54
2022/06/10 01:15:37;;;;;;;;;;;;;;;21.52;60.64;101518.09;7284679;19;153982;-53
2022/06/10 01:18:07;;;;;;;;;;;;;;;21.63;60.80;101510.34;7282478;19;152537;-54
2022/06/10 01:20:45;;;;;;;;;;;;;;;21.56;60.93;101518.31;7280351;19;152614;-54
2022/06/10 01:23:12;;;;;;;;;;;;;;;21.61;61.04;101521.06;7282075;19;153542;-53
2022/06/10 01:25:57;;;;;;;;;;;;;;;21.59;61.05;101506.47;7283315;19;152466;-54
2022/06/10 01:28:36;;;;;;;;;;;;;;;21.59;61.30;101518.56;7282862;19;153095;-54
2022/06/10 01:31:12;;;;;;;;;;;;;;;21.56;60.83;101513.53;7290492;19;152306;-54
2022/06/10 01:33:39;;;;;;;;;;;;;;;21.64;61.29;101507.22;7285436;19;153391;-54
2022/06/10 01:36:34;;;;;;;;;;;;;;;21.56;61.04;101504.25;7282201;19;153199;-54
2022/06/10 01:39:08;;;;;;;;;;;;;;;21.51;61.43;101513.59;7278862;19;151946;-53
2022/06/10 01:41:43;;;;;;;;;;;;;;;21.56;61.22;101502.28;7284505;19;152719;-54
2022/06/10 01:44:29;;;;;;;;;;;;;;;21.61;61.28;101507.00;7283613;19;153236;-52
2022/06/10 01:46:58;;;;;;;;;;;;;;;21.53;61.29;101505.69;7282749;19;152554;-54
2022/06/10 01:49:28;;;;;;;;;;;;;;;21.50;61.29;101513.91;7284850;19;152888;-54
2022/06/10 01:51:56;;;;;;;;;;;;;;;21.51;62.00;101519.22;7290200;19;153707;-54
2022/06/10 01:54:42;;;;;;;;;;;;;;;21.52;61.65;101514.44;7281654;19;153159;-54
2022/06/10 01:57:13;;;;;;;;;;;;;;;21.50;61.63;101505.47;7279899;19;152456;-53
2022/06/10 01:59:56;;;;;;;;;;;;;;;21.48;61.67;101513.38;7281867;19;152613;-54
2022/06/10 02:03:04;;;;;;;;;;;;;;;21.52;61.82;101498.41;7282746;19;153634;-54
2022/06/10 02:05:42;;;;;;;;;;;;;;;21.52;61.78;101495.59;7281699;19;153883;-53
2022/06/10 02:08:19;;;;;;;;;;;;;;;21.48;61.64;101507.75;7279519;19;153093;-54
2022/06/10 02:11:06;;;;;;;;;;;;;;;21.44;61.95;101501.88;7283797;19;153162;-53
2022/06/10 02:13:37;;;;;;;;;;;;;;;21.45;61.39;101500.75;7279333;19;154101;-55
2022/06/10 02:16:08;;;;;;;;;;;;;;;21.43;61.87;101497.41;7292002;19;152157;-54
2022/06/10 02:18:50;;;;;;;;;;;;;;;21.50;61.81;101500.69;7279619;19;154171;-53
2022/06/10 02:21:26;;;;;;;;;;;;;;;21.46;61.73;101498.78;7278442;19;151839;-54
2022/06/10 02:24:03;;;;;;;;;;;;;;;21.45;61.86;101505.53;7283009;19;153505;-54
2022/06/10 02:26:31;;;;;;;;;;;;;;;21.50;61.52;101509.13;7279787;19;153441;-54
2022/06/10 02:29:00;;;;;;;;;;;;;;;21.53;61.42;101504.88;7282171;19;152732;-52
2022/06/10 02:31:47;;;;;;;;;;;;;;;21.54;61.32;101507.38;7283447;19;152676;-54
2022/06/10 02:34:14;;;;;;;;;;;;;;;21.51;61.67;101510.78;7281046;19;153734;-54
2022/06/10 02:36:53;;;;;;;;;;;;;;;21.49;61.44;101515.88;7281807;19;154396;-54
2022/06/10 02:39:30;;;;;;;;;;;;;;;21.46;61.85;101519.28;7287186;19;152489;-52
2022/06/10 02:42:21;;;;;;;;;;;;;;;21.58;61.82;101513.22;7281084;19;152271;-54
2022/06/10 02:44:49;;;;;;;;;;;;;;;21.52;61.44;101515.28;7283079;19;152557;-53
2022/06/10 02:47:22;;;;;;;;;;;;;;;21.51;61.51;101519.22;7279468;19;154007;-53
2022/06/10 02:49:49;;;;;;;;;;;;;;;21.56;61.93;101516.34;7282700;19;152337;-54
2022/06/10 02:52:17;;;;;;;;;;;;;;;21.53;62.06;101519.75;7283248;19;152651;-54
2022/06/10 02:54:45;;;;;;;;;;;;;;;21.51;62.10;101518.38;7281896;19;153660;-53
2022/06/10 02:57:21;;;;;;;;;;;;;;;21.48;62.27;101525.47;7279478;19;152016;-54
2022/06/10 03:02:38;;;;;;;;;;;;;;;21.44;62.33;101532.78;7287258;19;154135;-54
2022/06/10 03:05:29;;;;;;;;;;;;;;;21.52;62.48;101534.97;7281401;19;153492;-53
2022/06/10 03:08:24;;;;;;;;;;;;;;;21.51;62.46;101538.06;7278708;19;153221;-54
2022/06/10 03:11:09;;;;;;;;;;;;;;;21.59;62.00;101538.25;7281992;19;152251;-53
2022/06/10 03:13:50;;;;;;;;;;;;;;;21.62;61.85;101556.50;7281200;19;153319;-54
2022/06/10 03:16:17;;;;;;;;;;;;;;;21.61;61.74;101552.00;7281827;19;153208;-54
2022/06/10 03:19:01;;;;;;;;;;;;;;;21.56;62.16;101544.47;7280224;19;152598;-54
2022/06/10 03:21:52;;;;;;;;;;;;;;;21.53;62.41;101555.50;7276188;19;153491;-53
2022/06/10 03:24:30;;;;;;;;;;;;;;;21.62;62.39;101554.50;7279837;19;153566;-54
2022/06/10 03:27:10;;;;;;;;;;;;;;;21.56;62.45;101552.91;7287719;19;152148;-54
2022/06/10 03:29:47;;;;;;;;;;;;;;;21.51;62.22;101558.59;7280803;19;154216;-53
2022/06/10 03:32:18;;;;;;;;;;;;;;;21.56;62.77;101552.91;7278814;19;152243;-54
2022/06/10 03:34:48;;;;;;;;;;;;;;;21.60;62.04;101568.03;7280549;19;153581;-54
2022/06/10 03:37:17;;;;;;;;;;;;;;;21.63;61.83;101563.78;7280464;19;153295;-54
2022/06/10 03:39:51;;;;;;;;;;;;;;;21.59;62.07;101566.34;7279901;19;152201;-54
2022/06/10 03:42:19;;;;;;;;;;;;;;;21.51;62.02;101567.03;7281615;19;153349;-53
2022/06/10 03:44:47;;;;;;;;;;;;;;;21.59;62.39;101566.34;7279591;19;153330;-53
2022/06/10 03:47:16;;;;;;;;;;;;;;;21.51;62.40;101564.22;7288282;19;152024;-54
2022/06/10 03:49:48;;;;;;;;;;;;;;;21.53;62.51;101567.53;7279396;19;153819;-53
2022/06/10 03:52:20;;;;;;;;;;;;;;;21.53;62.36;101572.38;7279655;19;152210;-54
2022/06/10 03:54:47;;;;;;;;;;;;;;;21.47;62.48;101579.16;7282366;19;152822;-54
2022/06/10 03:57:14;;;;;;;;;;;;;;;21.53;62.09;101567.53;7277172;19;153242;-54
2022/06/10 03:59:41;;;;;;;;;;;;;;;21.61;62.21;101575.34;7279151;19;152479;-54
2022/06/10 04:02:07;;;;;;;;;;;;;;;21.59;62.11;101571.13;7277467;19;152657;-54
2022/06/10 04:04:34;;;;;;;;;;;;;;;21.54;62.51;101572.03;7277637;19;153347;-54
2022/06/10 04:07:01;;;;;;;;;;;;;;;21.58;62.39;101567.50;7278947;19;152180;-55
2022/06/10 04:09:28;;;;;;;;;;;;;;;21.48;62.23;101569.59;7285043;19;152584;-55
2022/06/10 04:11:54;;;;;;;;;;;;;;;21.59;62.66;101574.78;7278576;19;152370;-54
2022/06/10 04:14:21;;;;;;;;;;;;;;;21.53;62.43;101575.97;7280789;19;153346;-55
2022/06/10 04:16:48;;;;;;;;;;;;;;;21.50;63.13;101578.56;7278669;19;155837;-53
2022/06/10 04:19:15;;;;;;;;;;;;;;;21.49;63.04;101568.44;7283020;19;156396;-54
2022/06/10 04:21:42;;;;;;;;;;;;;;;21.58;62.81;101577.91;7284117;19;154335;-55
2022/06/10 04:24:08;;;;;;;;;;;;;;;21.55;62.40;101576.53;7280877;19;153570;-53
2022/06/10 04:26:35;;;;;;;;;;;;;;;21.49;62.61;101586.16;7286232;19;151859;-54
2022/06/10 04:29:02;;;;;;;;;;;;;;;21.50;63.06;101582.22;7285148;19;153362;-54
2022/06/10 04:31:29;;;;;;;;;;;;;;;21.45;62.77;101587.91;7292098;19;154444;-54
2022/06/10 04:33:56;;;;;;;;;;;;;;;21.43;63.32;101584.56;7286369;19;153559;-53
2022/06/10 04:36:22;;;;;;;;;;;;;;;21.41;63.23;101597.22;7285102;19;153661;-54
2022/06/10 04:38:49;;;;;;;;;;;;;;;21.43;62.99;101594.97;7284323;19;152035;-54
2022/06/10 04:41:16;;;;;;;;;;;;;;;21.47;63.35;101594.06;7285905;19;152546;-53
2022/06/10 04:43:43;;;;;;;;;;;;;;;21.46;63.09;101600.81;7284951;19;153860;-55
2022/06/10 04:46:14;;;;;;;;;;;;;;;21.54;63.53;101605.78;7285485;19;151718;-54
2022/06/10 04:48:41;;;;;;;;;;;;;;;21.48;63.00;101612.63;7285711;19;153384;-53
2022/06/10 04:51:08;;;;;;;;;;;;;;;21.50;63.05;101604.72;7284658;19;153335;-54
2022/06/10 04:53:35;;;;;;;;;;;;;;;21.50;63.14;101610.34;7293555;19;152016;-54
2022/06/10 04:56:01;;;;;;;;;;;;;;;21.47;63.29;101610.94;7283677;19;153147;-53
2022/06/10 04:58:28;;;;;;;;;;;;;;;21.47;63.24;101613.75;7281622;19;152199;-53
2022/06/10 05:00:55;;;;;;;;;;;;;;;21.53;62.81;101609.72;7284387;19;153089;-52
2022/06/10 05:03:21;;;;;;;;;;;;;;;21.57;63.33;101613.63;7282251;19;153139;-54
2022/06/10 05:05:50;;;;;;;;;;;;;;;21.53;62.75;101606.91;7285728;19;152057;-53
2022/06/10 05:08:18;;;;;;;;;;;;;;;21.50;63.24;101615.13;7281891;19;157573;-54
2022/06/10 05:10:48;;;;;;;;;;;;;;;21.46;63.71;101608.41;7281319;19;153199;-54
2022/06/10 05:13:20;;;;;;;;;;;;;;;21.46;64.03;101609.25;7285320;19;152178;-54
2022/06/10 05:15:48;;;;;;;;;;;;;;;21.49;63.31;101608.66;7291765;19;153548;-53
2022/06/10 05:18:16;;;;;;;;;;;;;;;21.45;63.32;101601.97;7283338;19;152419;-55
2022/06/10 05:20:44;;;;;;;;;;;;;;;21.48;64.03;101592.09;7282725;19;153446;-53
2022/06/10 05:23:12;;;;;;;;;;;;;;;21.46;64.01;101598.00;7279961;19;154041;-53
2022/06/10 05:25:38;;;;;;;;;;;;;;;21.44;63.65;101597.47;7282015;19;152606;-53
2022/06/10 05:28:06;;;;;;;;;;;;;;;21.43;63.82;101594.97;7283404;19;153256;-54
2022/06/10 05:30:34;;;;;;;;;;;;;;;21.41;64.16;101592.44;7283041;19;153877;-54
2022/06/10 05:33:02;;;;;;;;;;;;;;;21.41;63.99;101595.25;7281326;19;151957;-52
2022/06/10 05:35:41;;;;;;;;;;;;;;;21.39;63.71;101597.53;7285331;19;152609;-52
2022/06/10 05:38:07;;;;;;;;;;;;;;;21.37;63.93;101591.38;7290071;19;153186;-53
2022/06/10 05:40:35;;;;;;;;;;;;;;;21.39;63.71;101603.16;7283907;19;152566;-54
2022/06/10 05:43:04;;;;;;;;;;;;;;;21.40;63.66;101606.78;7282727;19;154311;-55
2022/06/10 05:45:38;;;;;;;;;;;;;;;21.40;63.25;101610.44;7284276;19;151955;-53
2022/06/10 05:48:05;;;;;;;;;;;;;;;21.45;63.66;101606.75;7283571;19;153606;-55
2022/06/10 05:50:35;;;;;;;;;;;;;;;21.41;63.63;101605.66;7283303;19;154090;-54
2022/06/10 05:53:03;;;;;;;;;;;;;;;21.48;63.44;101607.00;7282249;19;153575;-54
2022/06/10 05:55:40;;;;;;;;;;;;;;;21.45;63.37;101609.56;7284706;19;153414;-53
2022/06/10 05:58:07;;;;;;;;;;;;;;;21.42;63.53;101604.53;7287918;19;153843;-56
2022/06/10 06:00:34;;;;;;;;;;;;;;;21.40;63.24;101607.63;7281664;19;153511;-54
2022/06/10 06:03:01;;;;;;;;;;;;;;;21.40;63.34;101603.97;7282963;19;153843;-53
2022/06/10 06:05:34;;;;;;;;;;;;;;;21.41;64.15;101609.31;7280017;19;153118;-53
2022/06/10 06:08:01;;;;;;;;;;;;;;;21.41;63.68;101611.28;7283774;19;153847;-53
2022/06/10 06:10:28;;;;;;;;;;;;;;;21.40;63.36;101604.81;7280175;19;153943;-53
2022/06/10 06:12:56;;;;;;;;;;;;;;;21.39;63.26;101607.94;7283680;19;152429;-54
2022/06/10 06:15:25;;;;;;;;;;;;;;;21.39;63.34;101614.41;7284768;19;152895;-54
2022/06/10 06:18:05;;;;;;;;;;;;;;;21.45;63.55;101609.56;7281425;19;152412;-52
2022/06/10 06:20:32;;;;;;;;;;;;;;;21.43;63.27;101615.50;7288471;19;152164;-53
2022/06/10 06:22:59;;;;;;;;;;;;;;;21.43;63.74;101614.66;7279641;19;154049;-53
2022/06/10 06:25:26;;;;;;;;;;;;;;;21.42;63.47;101615.78;7278859;19;152719;-53
2022/06/10 06:28:05;;;;;;;;;;;;;;;21.43;63.49;101611.84;7282094;19;153427;-54
2022/06/10 06:30:34;;;;;;;;;;;;;;;21.40;62.76;101618.88;7280554;19;154097;-54
2022/06/10 06:33:03;;;;;;;;;;;;;;;21.40;62.81;101616.06;7283394;19;152795;-53
2022/06/10 06:35:39;;;;;;;;;;;;;;;21.44;62.58;101614.34;7281333;19;153611;-58
2022/06/10 06:38:06;;;;;;;;;;;;;;;21.36;60.16;101616.97;7279420;19;153632;-53
2022/06/10 06:40:33;;;;;;;;;;;;;;;21.30;60.41;101628.25;7281347;19;152508;-54
2022/06/10 06:43:00;;;;;;;;;;;;;;;21.39;60.11;101627.63;7287239;19;152609;-53
2022/06/10 06:45:29;;;;;;;;;;;;;;;21.39;60.34;101624.81;7283831;19;152252;-54
2022/06/10 06:48:11;;;;;;;;;;;;;;;21.44;60.33;101636.00;7282993;19;152278;-53
2022/06/10 06:50:40;;;;;;;;;;;;;;;21.45;60.48;101627.25;7282401;19;152907;-53
2022/06/10 06:53:08;;;;;;;;;;;;;;;21.46;60.10;101634.56;7282045;19;152011;-53
2022/06/10 06:55:39;;;;;;;;;;;;;;;21.48;59.99;101637.94;7283506;19;153003;-54
2022/06/10 06:58:07;;;;;;;;;;;;;;;21.50;59.67;101640.41;7277465;19;153491;-54
2022/06/10 07:00:34;;;;;;;;;;;;;;;21.52;59.31;101644.63;7280499;19;152087;-55
2022/06/10 07:03:01;;;;;;;;;;;;;;;21.55;58.66;101646.84;7282261;19;153174;-55
2022/06/10 07:05:38;;;;;;;;;;;;;;;21.55;58.78;101654.44;7287827;19;153155;-54
2022/06/10 07:08:08;;;;;;;;;;;;;;;21.57;58.48;101649.34;7281206;19;153711;-54
2022/06/10 07:10:35;;;;;;;;;;;;;;;21.59;58.38;101650.72;7281358;19;153147;-53
2022/06/10 07:13:02;;;;;;;;;;;;;;;21.61;58.23;101644.81;7280315;19;151520;-54
2022/06/10 07:15:39;;;;;;;;;;;;;;;21.63;58.30;101645.34;7279976;19;152667;-54
2022/06/10 07:18:06;;;;;;;;;;;;;;;21.65;57.97;101649.53;7278695;19;153560;-54
2022/06/10 07:20:35;;;;;;;;;;;;;;;21.67;57.79;101654.84;7280293;19;152008;-54
2022/06/10 07:23:02;;;;;;;;;;;;;;;21.66;57.33;101656.84;7282002;19;152548;-53
2022/06/10 07:25:38;;;;;;;;;;;;;;;21.66;57.61;101661.63;7275928;19;153455;-53
2022/06/10 07:28:11;;;;;;;;;;;;;;;21.71;57.60;101656.75;7289174;19;151623;-54
2022/06/10 07:30:39;;;;;;;;;;;;;;;21.82;57.79;101663.09;7279759;19;154109;-54
2022/06/10 07:33:05;;;;;;;;;;;;;;;21.78;57.44;101661.19;7280732;19;152071;-54
2022/06/10 07:35:38;;;;;;;;;;;;;;;21.85;56.90;101665.31;7279118;19;153453;-55
2022/06/10 07:38:09;;;;;;;;;;;;;;;21.85;56.88;101670.94;7281401;19;154129;-57
2022/06/10 07:43:41;;;;;;;;;;;;;;;21.78;56.83;101656.41;7280637;19;153288;-54
2022/06/10 07:46:09;;;;;;;;;;;;;;;21.77;56.82;101651.91;7279884;19;155704;-54
2022/06/10 07:48:36;;;;;;;;;;;;;;;21.76;56.68;101661.47;7277452;19;152913;-53
2022/06/10 07:51:02;;;;;;;;;;;;;;;21.77;56.51;101660.34;7286057;19;153305;-55
2022/06/10 07:53:30;;;;;;;;;;;;;;;21.77;55.84;101671.59;7281894;19;153855;-54
2022/06/10 07:55:57;;;;;;;;;;;;;;;21.77;55.78;101668.78;7281423;19;152645;-55
2022/06/10 07:58:24;;;;;;;;;;;;;;;21.78;55.82;101675.25;7280903;19;154135;-55
2022/06/10 08:00:51;;;;;;;;;;;;;;;21.76;55.89;101667.13;7283227;19;152714;-54
2022/06/10 08:03:18;;;;;;;;;;;;;;;21.74;55.68;101664.63;7280880;19;152677;-53
2022/06/10 08:05:45;;;;;;;;;;;;;;;21.77;55.52;101665.13;7282157;19;154025;-54
2022/06/10 08:08:14;;;;;;;;;;;;;;;21.77;55.68;101682.84;7282003;19;151853;-54
2022/06/10 08:10:41;;;;;;;;;;;;;;;21.76;55.49;101667.13;7289635;19;153321;-54
2022/06/10 08:13:08;;;;;;;;;;;;;;;21.77;55.07;101670.75;7282867;19;152815;-55
2022/06/10 08:15:38;;;;;;;;;;;;;;;21.76;55.51;101675.56;7285727;19;154291;-55
2022/06/10 08:18:05;;;;;;;;;;;;;;;21.76;55.22;101660.69;7280729;19;153978;-55
2022/06/10 08:23:21;;;;;;;;;;;;;;;21.76;55.34;101669.91;7282165;19;153032;-55
2022/06/10 08:25:49;;;;;;;;;;;;;;;21.76;54.79;101664.28;7279609;19;153598;-54
2022/06/10 08:28:16;;;;;;;;;;;;;;;21.81;54.77;101663.41;7279641;19;152158;-54
2022/06/10 08:30:42;;;;;;;;;;;;;;;21.78;54.92;101658.38;7283982;19;152590;-54
2022/06/10 08:33:09;;;;;;;;;;;;;;;21.80;54.28;101658.94;7289076;19;153619;-55
2022/06/10 08:35:37;;;;;;;;;;;;;;;21.77;54.47;101662.31;7282210;19;152669;-55
2022/06/10 08:38:05;;;;;;;;;;;;;;;21.77;54.48;101665.97;7279350;19;153585;-55
2022/06/10 08:40:39;;;;;;;;;;;;;;;21.76;54.60;101664.28;7280095;19;153003;-54
2022/06/10 08:43:10;;;;;;;;;;;;;;;21.74;54.48;101661.81;7282021;19;153038;-54
2022/06/10 08:45:47;;;;;;;;;;;;;;;21.77;54.35;101657.53;7281583;19;154164;-55
2022/06/10 08:48:24;;;;;;;;;;;;;;;21.75;54.24;101657.03;7280678;19;152149;-53
2022/06/10 08:51:08;;;;;;;;;;;;;;;21.78;53.58;101653.59;7283665;19;153327;-52
2022/06/10 08:53:34;;;;;;;;;;;;;;;21.79;53.89;101662.88;7278193;19;156450;-54
2022/06/10 08:56:03;;;;;;;;;;;;;;;21.77;53.42;101665.13;7290712;19;152557;-54
2022/06/10 08:58:49;;;;;;;;;;;;;;;21.76;53.47;101646.63;7279504;19;153556;-54
2022/06/10 09:01:18;;;;;;;;;;;;;;;21.73;53.27;101648.88;7280387;19;152293;-55
2022/06/10 09:03:48;;;;;;;;;;;;;;;21.76;53.19;101657.88;7279752;19;154013;-54
2022/06/10 09:06:29;;;;;;;;;;;;;;;21.77;53.29;101651.06;7283420;19;153483;-54
2022/06/10 09:09:00;;;;;;;;;;;;;;;21.84;52.39;101658.03;7279862;19;152933;-55
2022/06/10 09:11:33;;;;;;;;;;;;;;;21.81;52.78;101652.16;7283390;19;152235;-54
2022/06/10 09:14:18;;;;;;;;;;;;;;;21.83;52.06;101649.88;7277547;19;153457;-55
2022/06/10 09:16:45;;;;;;;;;;;;;;;21.80;52.39;101650.50;7282434;19;151871;-55
2022/06/10 09:19:15;;;;;;;;;;;;;;;21.78;52.69;101647.97;7287560;19;153115;-55
2022/06/10 09:21:48;;;;;;;;;;;;;;;21.82;52.09;101648.19;7279817;19;153307;-54
2022/06/10 09:24:25;;;;;;;;;;;;;;;21.82;52.46;101651.00;7280471;19;152756;-55
2022/06/10 09:27:09;;;;;;;;;;;;;;;21.85;52.20;101645.63;7277552;19;153298;-55
2022/06/10 09:29:38;;;;;;;;;;;;;;;21.88;51.61;101647.00;7276254;19;151960;-55
2022/06/10 09:32:17;;;;;;;;;;;;;;;21.88;51.49;101652.63;7281112;19;153345;-55
2022/06/10 09:34:53;;;;;;;;;;;;;;;21.88;51.60;101655.44;7279998;19;154835;-54
2022/06/10 09:37:32;;;;;;;;;;;;;;;21.88;51.52;101650.66;7281593;19;153215;-55
2022/06/10 09:40:52;;;;;;;;;;;;;;;21.87;51.43;101654.59;7280737;19;153273;-55
2022/06/10 09:42:59;;;;;;;;;;;;;;;21.92;51.25;101653.72;7283290;19;153265;-55
2022/06/10 09:45:49;;;;;;;;;;;;;;;21.96;51.00;101649.19;7279915;19;153612;-54
2022/06/10 09:48:43;;;;;;;;;;;;;;;21.97;51.04;101651.72;7276465;19;154385;-54
2022/06/10 09:51:30;;;;;;;;;;;;;;;21.94;51.00;101657.09;7281792;19;152198;-54
2022/06/10 09:53:56;;;;;;;;;;;;;;;21.96;51.01;101643.56;7280715;19;152560;-54
2022/06/10 09:56:24;;;;;;;;;;;;;;;21.95;50.96;101636.25;7273973;19;154402;-53
2022/06/10 09:59:17;;;;;;;;;;;;;;;21.98;51.04;101635.66;7276620;19;152106;-55
2022/06/10 10:02:03;;;;;;;;;;;;;;;21.98;51.20;101647.75;7278279;19;153596;-54
2022/06/10 10:04:41;;;;;;;;;;;;;;;21.93;51.31;101649.78;7278173;19;153866;-54
2022/06/10 10:07:17;;;;;;;;;;;;;;;22.00;51.30;101650.25;7286603;19;152175;-53
2022/06/10 10:09:51;;;;;;;;;;;;;;;21.97;51.04;101650.88;7278257;19;154287;-55
2022/06/10 10:12:18;;;;;;;;;;;;;;;22.02;51.26;101636.72;7276662;19;152400;-54
2022/06/10 10:15:03;;;;;;;;;;;;;;;22.00;50.75;101637.03;7280858;19;152596;-55
2022/06/10 10:17:30;;;;;;;;;;;;;;;21.97;51.35;101653.69;7276892;19;154004;-56
2022/06/10 10:20:09;;;;;;;;;;;;;;;21.93;51.33;101644.16;7278578;19;152144;-54
2022/06/10 10:22:56;;;;;;;;;;;;;;;21.87;51.87;101646.16;7278806;19;152960;-54
2022/06/10 10:25:35;;;;;;;;;;;;;;;21.88;51.67;101652.63;7275387;19;154095;-56
2022/06/10 10:28:22;;;;;;;;;;;;;;;21.92;51.47;101653.72;7284402;19;152417;-55
2022/06/10 10:31:01;;;;;;;;;;;;;;;21.96;51.25;101657.63;7274608;19;155859;-56
2022/06/10 10:33:28;;;;;;;;;;;;;;;22.00;51.06;101647.44;7279666;19;152277;-55
2022/06/10 10:35:56;;;;;;;;;;;;;;;22.04;51.08;101648.50;7279615;19;153288;-55
2022/06/10 10:38:41;;;;;;;;;;;;;;;22.04;51.30;101654.13;7276301;19;153256;-54
2022/06/10 10:41:20;;;;;;;;;;;;;;;22.04;51.40;101646.53;7279437;19;152089;-54
2022/06/10 10:43:50;;;;;;;;;;;;;;;21.99;51.11;101643.78;7276355;19;152472;-54
2022/06/10 10:46:34;;;;;;;;;;;;;;;21.97;51.46;101631.16;7278177;19;153165;-55
2022/06/10 10:49:15;;;;;;;;;;;;;;;21.92;51.54;101639.63;7277409;19;151555;-54
2022/06/10 10:51:42;;;;;;;;;;;;;;;21.89;51.56;101634.63;7285375;19;153479;-54
2022/06/10 10:54:29;;;;;;;;;;;;;;;21.90;51.56;101633.47;7276611;19;155264;-54
2022/06/10 10:56:57;;;;;;;;;;;;;;;21.86;51.44;101636.06;7281113;19;153221;-53
2022/06/10 10:59:31;;;;;;;;;;;;;;;21.87;51.84;101639.69;7271922;19;153922;-54
2022/06/10 11:01:58;;;;;;;;;;;;;;;21.85;51.90;101636.38;7278775;19;151825;-55
2022/06/10 11:04:33;;;;;;;;;;;;;;;21.82;51.54;101649.03;7276095;19;152782;-55
2022/06/10 11:07:04;;;;;;;;;;;;;;;21.78;52.02;101642.34;7275249;19;153548;-54
2022/06/10 11:09:52;;;;;;;;;;;;;;;21.82;51.58;101642.56;7275284;19;151987;-54
2022/06/10 11:12:20;;;;;;;;;;;;;;;21.86;51.38;101638.88;7280125;19;153112;-55
2022/06/10 11:14:49;;;;;;;;;;;;;;;21.84;51.76;101629.91;7284273;19;153870;-54
2022/06/10 11:17:18;;;;;;;;;;;;;;;21.85;51.64;101633.56;7279147;19;152789;-54
2022/06/10 11:19:54;;;;;;;;;;;;;;;21.85;51.63;101627.94;7277656;19;154050;-55
2022/06/10 11:22:28;;;;;;;;;;;;;;;21.84;51.56;101629.91;7276826;19;151777;-54
2022/06/10 11:25:15;;;;;;;;;;;;;;;21.83;51.55;101631.03;7278686;19;151880;-55
2022/06/10 11:27:45;;;;;;;;;;;;;;;21.81;51.88;101627.66;7274087;19;153568;-54
2022/06/10 11:30:12;;;;;;;;;;;;;;;21.84;51.38;101629.06;7272725;19;152275;-55
2022/06/10 11:32:38;;;;;;;;;;;;;;;21.85;51.55;101630.75;7277110;19;153427;-55
2022/06/10 11:35:41;;;;;;;;;;;;;;;21.86;51.80;101629.56;7277340;19;153838;-54
2022/06/10 11:38:08;;;;;;;;;;;;;;;21.84;51.52;101634.69;7281425;19;152380;-54
2022/06/10 11:40:48;;;;;;;;;;;;;;;21.88;51.56;101644.19;7276348;19;153325;-55
2022/06/10 11:43:29;;;;;;;;;;;;;;;21.91;51.71;101643.59;7276742;19;151828;-54
2022/06/10 11:46:04;;;;;;;;;;;;;;;21.89;51.79;101631.81;7274610;19;151783;-54
2022/06/10 11:48:46;;;;;;;;;;;;;;;21.88;51.70;101636.59;7275841;19;153565;-55
2022/06/10 11:51:32;;;;;;;;;;;;;;;21.88;51.35;101635.75;7277489;19;151966;-54
2022/06/10 11:54:18;;;;;;;;;;;;;;;21.87;51.57;101629.28;7276158;19;153159;-54
2022/06/10 11:59:44;;;;;;;;;;;;;;;21.89;51.33;101624.22;7277208;19;152139;-54
2022/06/10 12:02:31;;;;;;;;;;;;;;;21.92;51.69;101632.03;7283664;19;154257;-55
2022/06/10 12:05:25;;;;;;;;;;;;;;;21.92;51.79;101626.41;7276751;19;152006;-53
2022/06/10 12:08:19;;;;;;;;;;;;;;;21.89;51.42;101624.22;7275788;19;153262;-55
2022/06/10 12:10:53;;;;;;;;;;;;;;;21.88;51.44;101624.50;7275496;19;152914;-53
2022/06/10 12:13:20;;;;;;;;;;;;;;;21.89;51.73;101621.41;7278227;19;152800;-54
2022/06/10 12:15:56;;;;;;;;;;;;;;;21.89;51.61;101626.19;7276198;19;154045;-54
2022/06/10 12:18:25;;;;;;;;;;;;;;;21.90;51.57;101625.03;7273937;19;153833;-54
2022/06/10 12:20:58;;;;;;;;;;;;;;;21.88;51.75;101619.72;7276113;19;151992;-54
2022/06/10 12:23:29;;;;;;;;;;;;;;;21.91;51.29;101624.72;7275997;19;152978;-53
2022/06/10 12:26:12;;;;;;;;;;;;;;;21.91;51.56;101615.44;7281586;19;152445;-54
2022/06/10 12:28:51;;;;;;;;;;;;;;;21.89;51.37;101615.78;7275649;19;152574;-54
2022/06/10 12:31:33;;;;;;;;;;;;;;;21.92;51.51;101617.13;7270750;19;154451;-54
2022/06/10 12:34:02;;;;;;;;;;;;;;;21.93;51.33;101616.03;7276699;19;152047;-55
2022/06/10 12:36:35;;;;;;;;;;;;;;;21.96;51.23;101615.41;7274988;19;152167;-52
2022/06/10 12:39:02;;;;;;;;;;;;;;;21.94;51.59;101607.28;7274673;19;154050;-55
2022/06/10 12:41:39;;;;;;;;;;;;;;;21.97;51.14;101606.69;7282414;19;152172;-55
2022/06/10 12:44:11;;;;;;;;;;;;;;;21.93;51.34;101604.78;7281160;19;152546;-55
2022/06/10 12:46:38;;;;;;;;;;;;;;;21.92;51.75;101598.28;7288751;19;154569;-52
2022/06/10 12:49:16;;;;;;;;;;;;;;;21.94;51.71;101600.84;7282639;19;153664;-55
2022/06/10 12:51:46;;;;;;;;;;;;;;;21.95;51.47;101603.31;7279547;19;153347;-55
2022/06/10 12:54:20;;;;;;;;;;;;;;;21.97;51.45;101605.84;7281868;19;152395;-55
2022/06/10 12:56:47;;;;;;;;;;;;;;;21.98;51.44;101604.72;7280324;19;153598;-54
2022/06/10 12:59:24;;;;;;;;;;;;;;;21.98;51.64;101602.75;7279158;19;153242;-54
2022/06/10 13:01:52;;;;;;;;;;;;;;;22.00;51.56;101596.78;7282189;19;151776;-54
2022/06/10 13:04:25;;;;;;;;;;;;;;;22.00;51.69;101594.81;7280450;19;153872;-54
2022/06/10 13:07:00;;;;;;;;;;;;;;;22.00;51.37;101594.81;7280072;19;153910;-53